Aviation Digital Data Service (ADDS)

Output produced by TAFs form (0051 UTC 06 December 2016)
found at http://www.aviationweather.gov/adds/tafs/
 
KAPA 052353Z 09013G24KT 10SM SCT120 SCT220 M01/M13 A2971 RMK AO2 WSHFT 2308 SLP073 60001 T10111133 10111 21011 53027
KAPA 060000Z 0600/0624 08013G20KT P6SM FEW120 SCT200 
     FM060200 09014KT P6SM SCT080 BKN120 
     FM060600 13012KT P6SM SCT070 BKN110 
     FM060900 09007KT P6SM SCT060 BKN100 
     FM061800 12012KT P6SM SCT050 BKN100 
     FM062200 10012KT P6SM SCT025 OVC050 
     PROB30 0622/0624 2SM -SN BR BKN020